sensor_id;sensor_type;location;lat;lon;timestamp;P1;durP1;ratioP1;P2;durP2;ratioP2
19879;SDS011;10102;50.828;4.416;2024-01-30T06:31:21;9.77;;;5.45;;
19879;SDS011;10102;50.828;4.416;2024-01-30T06:33:47;9.02;;;5.72;;
19879;SDS011;10102;50.828;4.416;2024-01-30T06:36:14;8.75;;;5.68;;
19879;SDS011;10102;50.828;4.416;2024-01-30T06:38:40;11.90;;;5.38;;
19879;SDS011;10102;50.828;4.416;2024-01-30T06:41:06;10.18;;;5.40;;
19879;SDS011;10102;50.828;4.416;2024-01-30T06:43:31;11.02;;;5.70;;
19879;SDS011;10102;50.828;4.416;2024-01-30T06:45:57;6.88;;;4.88;;
19879;SDS011;10102;50.828;4.416;2024-01-30T06:48:23;9.85;;;5.43;;
19879;SDS011;10102;50.828;4.416;2024-01-30T06:50:49;8.82;;;5.22;;
19879;SDS011;10102;50.828;4.416;2024-01-30T06:53:15;8.23;;;5.55;;
19879;SDS011;10102;50.828;4.416;2024-01-30T06:55:41;7.75;;;5.68;;
19879;SDS011;10102;50.828;4.416;2024-01-30T06:58:07;10.82;;;5.47;;
19879;SDS011;10102;50.828;4.416;2024-01-30T07:00:32;10.95;;;5.55;;
19879;SDS011;10102;50.828;4.416;2024-01-30T07:02:58;13.57;;;6.03;;
19879;SDS011;10102;50.828;4.416;2024-01-30T07:05:25;10.30;;;5.57;;
19879;SDS011;10102;50.828;4.416;2024-01-30T07:07:51;10.68;;;5.88;;
19879;SDS011;10102;50.828;4.416;2024-01-30T07:10:16;9.88;;;5.53;;
19879;SDS011;10102;50.828;4.416;2024-01-30T07:12:42;7.68;;;5.65;;
19879;SDS011;10102;50.828;4.416;2024-01-30T07:15:08;11.90;;;5.90;;
19879;SDS011;10102;50.828;4.416;2024-01-30T07:17:34;7.47;;;5.10;;
19879;SDS011;10102;50.828;4.416;2024-01-30T07:20:00;8.13;;;5.45;;
19879;SDS011;10102;50.828;4.416;2024-01-30T07:22:28;9.60;;;5.95;;
19879;SDS011;10102;50.828;4.416;2024-01-30T07:24:55;11.10;;;6.15;;
19879;SDS011;10102;50.828;4.416;2024-01-30T07:27:21;9.13;;;5.82;;
19879;SDS011;10102;50.828;4.416;2024-01-30T07:29:46;8.18;;;5.20;;
19879;SDS011;10102;50.828;4.416;2024-01-30T07:32:13;10.18;;;5.30;;
19879;SDS011;10102;50.828;4.416;2024-01-30T07:34:39;10.85;;;5.85;;
19879;SDS011;10102;50.828;4.416;2024-01-30T07:37:05;7.90;;;5.28;;
19879;SDS011;10102;50.828;4.416;2024-01-30T07:39:33;9.48;;;5.47;;
19879;SDS011;10102;50.828;4.416;2024-01-30T07:41:59;11.90;;;5.60;;
19879;SDS011;10102;50.828;4.416;2024-01-30T07:44:25;17.52;;;6.30;;
19879;SDS011;10102;50.828;4.416;2024-01-30T07:46:51;9.60;;;5.40;;
19879;SDS011;10102;50.828;4.416;2024-01-30T07:49:16;9.90;;;5.45;;
19879;SDS011;10102;50.828;4.416;2024-01-30T07:51:42;7.80;;;5.25;;
19879;SDS011;10102;50.828;4.416;2024-01-30T07:54:16;12.27;;;6.00;;
19879;SDS011;10102;50.828;4.416;2024-01-30T07:56:42;10.45;;;5.65;;
19879;SDS011;10102;50.828;4.416;2024-01-30T07:59:11;9.18;;;5.50;;
19879;SDS011;10102;50.828;4.416;2024-01-30T08:01:37;9.23;;;6.05;;
19879;SDS011;10102;50.828;4.416;2024-01-30T08:04:03;19.27;;;6.75;;
19879;SDS011;10102;50.828;4.416;2024-01-30T08:06:29;11.43;;;5.57;;
19879;SDS011;10102;50.828;4.416;2024-01-30T08:08:55;14.50;;;6.15;;
19879;SDS011;10102;50.828;4.416;2024-01-30T08:11:22;10.75;;;5.57;;
19879;SDS011;10102;50.828;4.416;2024-01-30T08:13:51;14.07;;;6.65;;
19879;SDS011;10102;50.828;4.416;2024-01-30T08:16:19;15.75;;;6.65;;
19879;SDS011;10102;50.828;4.416;2024-01-30T08:18:45;10.13;;;6.15;;
19879;SDS011;10102;50.828;4.416;2024-01-30T08:21:11;12.18;;;6.22;;
19879;SDS011;10102;50.828;4.416;2024-01-30T08:23:40;16.13;;;5.88;;
19879;SDS011;10102;50.828;4.416;2024-01-30T08:26:06;16.08;;;6.18;;
19879;SDS011;10102;50.828;4.416;2024-01-30T08:28:32;11.45;;;5.82;;
19879;SDS011;10102;50.828;4.416;2024-01-30T08:30:58;14.05;;;6.05;;
19879;SDS011;10102;50.828;4.416;2024-01-30T08:33:24;14.68;;;6.18;;
19879;SDS011;10102;50.828;4.416;2024-01-30T08:35:49;17.35;;;6.28;;
19879;SDS011;10102;50.828;4.416;2024-01-30T08:38:15;14.32;;;6.03;;
19879;SDS011;10102;50.828;4.416;2024-01-30T08:40:41;13.75;;;6.53;;
19879;SDS011;10102;50.828;4.416;2024-01-30T08:43:06;18.13;;;6.38;;
19879;SDS011;10102;50.828;4.416;2024-01-30T08:45:34;11.73;;;6.22;;
19879;SDS011;10102;50.828;4.416;2024-01-30T08:48:00;15.25;;;6.43;;
19879;SDS011;10102;50.828;4.416;2024-01-30T08:50:25;16.65;;;6.22;;
19879;SDS011;10102;50.828;4.416;2024-01-30T08:52:51;15.27;;;6.88;;
19879;SDS011;10102;50.828;4.416;2024-01-30T08:55:16;12.75;;;6.10;;
19879;SDS011;10102;50.828;4.416;2024-01-30T08:57:42;13.48;;;6.80;;
19879;SDS011;10102;50.828;4.416;2024-01-30T09:00:08;9.90;;;6.07;;
19879;SDS011;10102;50.828;4.416;2024-01-30T09:02:35;12.02;;;6.78;;
19879;SDS011;10102;50.828;4.416;2024-01-30T09:05:00;9.15;;;6.38;;
19879;SDS011;10102;50.828;4.416;2024-01-30T09:07:26;10.27;;;6.32;;
19879;SDS011;10102;50.828;4.416;2024-01-30T09:09:52;11.85;;;6.20;;
19879;SDS011;10102;50.828;4.416;2024-01-30T09:12:18;13.10;;;6.50;;
19879;SDS011;10102;50.828;4.416;2024-01-30T09:14:43;14.48;;;6.82;;
19879;SDS011;10102;50.828;4.416;2024-01-30T09:17:09;13.88;;;6.60;;
19879;SDS011;10102;50.828;4.416;2024-01-30T09:19:35;16.42;;;6.75;;
19879;SDS011;10102;50.828;4.416;2024-01-30T09:22:01;13.02;;;6.35;;
19879;SDS011;10102;50.828;4.416;2024-01-30T09:24:28;12.98;;;6.20;;
19879;SDS011;10102;50.828;4.416;2024-01-30T09:26:53;15.73;;;7.28;;
19879;SDS011;10102;50.828;4.416;2024-01-30T09:29:19;12.88;;;6.88;;
19879;SDS011;10102;50.828;4.416;2024-01-30T09:31:46;18.08;;;6.93;;
19879;SDS011;10102;50.828;4.416;2024-01-30T09:34:12;16.63;;;6.93;;
19879;SDS011;10102;50.828;4.416;2024-01-30T09:36:39;13.38;;;6.72;;
19879;SDS011;10102;50.828;4.416;2024-01-30T09:39:04;16.88;;;7.53;;
19879;SDS011;10102;50.828;4.416;2024-01-30T09:41:38;13.77;;;7.38;;
19879;SDS011;10102;50.828;4.416;2024-01-30T09:44:15;15.13;;;7.30;;
19879;SDS011;10102;50.828;4.416;2024-01-30T09:46:42;13.98;;;7.63;;
19879;SDS011;10102;50.828;4.416;2024-01-30T09:49:10;16.23;;;7.82;;
19879;SDS011;10102;50.828;4.416;2024-01-30T09:51:37;14.43;;;7.70;;
19879;SDS011;10102;50.828;4.416;2024-01-30T09:54:03;15.80;;;8.57;;
19879;SDS011;10102;50.828;4.416;2024-01-30T09:56:29;15.18;;;7.72;;
19879;SDS011;10102;50.828;4.416;2024-01-30T09:58:54;18.08;;;9.13;;
19879;SDS011;10102;50.828;4.416;2024-01-30T10:01:20;22.98;;;8.45;;
19879;SDS011;10102;50.828;4.416;2024-01-30T10:03:46;16.98;;;8.82;;
19879;SDS011;10102;50.828;4.416;2024-01-30T10:06:12;18.25;;;8.20;;
19879;SDS011;10102;50.828;4.416;2024-01-30T10:08:39;18.08;;;8.90;;
19879;SDS011;10102;50.828;4.416;2024-01-30T10:11:05;18.73;;;9.10;;
19879;SDS011;10102;50.828;4.416;2024-01-30T10:13:31;15.05;;;8.32;;
19879;SDS011;10102;50.828;4.416;2024-01-30T10:15:57;17.83;;;9.35;;
19879;SDS011;10102;50.828;4.416;2024-01-30T10:18:23;20.25;;;9.15;;
19879;SDS011;10102;50.828;4.416;2024-01-30T10:20:49;18.40;;;8.52;;
19879;SDS011;10102;50.828;4.416;2024-01-30T10:23:16;12.57;;;7.85;;
19879;SDS011;10102;50.828;4.416;2024-01-30T10:25:42;16.33;;;7.90;;
19879;SDS011;10102;50.828;4.416;2024-01-30T10:28:08;16.58;;;8.65;;
19879;SDS011;10102;50.828;4.416;2024-01-30T10:30:34;18.23;;;8.13;;
19879;SDS011;10102;50.828;4.416;2024-01-30T10:33:00;17.23;;;8.27;;
19879;SDS011;10102;50.828;4.416;2024-01-30T10:35:27;17.08;;;7.90;;
19879;SDS011;10102;50.828;4.416;2024-01-30T10:37:53;18.52;;;9.35;;
19879;SDS011;10102;50.828;4.416;2024-01-30T10:40:24;14.40;;;8.45;;
19879;SDS011;10102;50.828;4.416;2024-01-30T10:42:53;19.60;;;8.48;;
19879;SDS011;10102;50.828;4.416;2024-01-30T10:45:20;15.25;;;8.02;;
19879;SDS011;10102;50.828;4.416;2024-01-30T10:47:50;15.88;;;8.32;;
19879;SDS011;10102;50.828;4.416;2024-01-30T10:50:19;12.80;;;7.32;;
19879;SDS011;10102;50.828;4.416;2024-01-30T10:52:45;18.83;;;7.28;;
19879;SDS011;10102;50.828;4.416;2024-01-30T10:55:12;17.00;;;6.95;;
19879;SDS011;10102;50.828;4.416;2024-01-30T10:57:40;17.08;;;7.13;;
19879;SDS011;10102;50.828;4.416;2024-01-30T11:00:07;16.35;;;7.40;;
19879;SDS011;10102;50.828;4.416;2024-01-30T11:02:36;18.40;;;7.18;;
19879;SDS011;10102;50.828;4.416;2024-01-30T11:05:09;14.50;;;6.00;;
19879;SDS011;10102;50.828;4.416;2024-01-30T11:07:35;11.43;;;6.40;;
19879;SDS011;10102;50.828;4.416;2024-01-30T11:10:04;9.50;;;5.75;;
19879;SDS011;10102;50.828;4.416;2024-01-30T11:12:32;12.65;;;7.35;;
19879;SDS011;10102;50.828;4.416;2024-01-30T11:17:45;12.00;;;4.70;;
19879;SDS011;10102;50.828;4.416;2024-01-30T11:20:14;10.68;;;4.35;;
19879;SDS011;10102;50.828;4.416;2024-01-30T11:22:45;12.68;;;4.97;;
19879;SDS011;10102;50.828;4.416;2024-01-30T11:25:13;10.00;;;4.80;;
19879;SDS011;10102;50.828;4.416;2024-01-30T11:27:40;7.90;;;3.42;;
19879;SDS011;10102;50.828;4.416;2024-01-30T11:30:07;10.38;;;3.78;;
19879;SDS011;10102;50.828;4.416;2024-01-30T11:32:33;7.70;;;2.70;;
19879;SDS011;10102;50.828;4.416;2024-01-30T11:34:59;9.55;;;3.00;;
19879;SDS011;10102;50.828;4.416;2024-01-30T11:37:25;7.93;;;2.58;;
19879;SDS011;10102;50.828;4.416;2024-01-30T11:39:53;8.85;;;2.28;;
19879;SDS011;10102;50.828;4.416;2024-01-30T11:42:19;3.92;;;2.22;;
19879;SDS011;10102;50.828;4.416;2024-01-30T11:44:47;5.30;;;1.85;;
19879;SDS011;10102;50.828;4.416;2024-01-30T11:47:14;5.15;;;2.15;;
19879;SDS011;10102;50.828;4.416;2024-01-30T11:49:40;4.72;;;1.85;;
19879;SDS011;10102;50.828;4.416;2024-01-30T11:52:06;2.28;;;1.80;;
19879;SDS011;10102;50.828;4.416;2024-01-30T11:54:32;6.25;;;2.00;;
19879;SDS011;10102;50.828;4.416;2024-01-30T11:56:58;4.43;;;1.70;;
19879;SDS011;10102;50.828;4.416;2024-01-30T11:59:24;3.88;;;1.38;;
19879;SDS011;10102;50.828;4.416;2024-01-30T12:01:51;4.78;;;1.50;;
19879;SDS011;10102;50.828;4.416;2024-01-30T12:04:18;1.75;;;1.10;;
19879;SDS011;10102;50.828;4.416;2024-01-30T12:06:44;3.75;;;1.08;;
19879;SDS011;10102;50.828;4.416;2024-01-30T12:09:09;5.78;;;1.00;;
19879;SDS011;10102;50.828;4.416;2024-01-30T12:11:44;2.05;;;1.00;;
19879;SDS011;10102;50.828;4.416;2024-01-30T12:14:13;3.28;;;1.00;;
19879;SDS011;10102;50.828;4.416;2024-01-30T12:16:40;1.67;;;0.93;;
19879;SDS011;10102;50.828;4.416;2024-01-30T12:19:06;9.57;;;1.23;;
19879;SDS011;10102;50.828;4.416;2024-01-30T12:21:33;2.97;;;1.00;;
19879;SDS011;10102;50.828;4.416;2024-01-30T12:23:59;4.28;;;1.80;;
19879;SDS011;10102;50.828;4.416;2024-01-30T12:26:25;4.90;;;1.40;;
19879;SDS011;10102;50.828;4.416;2024-01-30T12:28:54;5.50;;;1.10;;
19879;SDS011;10102;50.828;4.416;2024-01-30T12:31:27;5.63;;;1.00;;
19879;SDS011;10102;50.828;4.416;2024-01-30T12:33:53;3.95;;;1.15;;
19879;SDS011;10102;50.828;4.416;2024-01-30T12:36:20;2.97;;;0.73;;
19879;SDS011;10102;50.828;4.416;2024-01-30T12:38:47;10.90;;;1.20;;
19879;SDS011;10102;50.828;4.416;2024-01-30T12:41:12;4.95;;;0.88;;
19879;SDS011;10102;50.828;4.416;2024-01-30T12:43:38;2.75;;;0.65;;
19879;SDS011;10102;50.828;4.416;2024-01-30T12:46:05;1.20;;;0.50;;
19879;SDS011;10102;50.828;4.416;2024-01-30T12:48:31;6.07;;;1.05;;
19879;SDS011;10102;50.828;4.416;2024-01-30T12:50:57;4.10;;;1.38;;
19879;SDS011;10102;50.828;4.416;2024-01-30T12:53:23;2.25;;;1.05;;
19879;SDS011;10102;50.828;4.416;2024-01-30T12:55:48;4.00;;;1.05;;
19879;SDS011;10102;50.828;4.416;2024-01-30T12:58:19;2.90;;;0.80;;
19879;SDS011;10102;50.828;4.416;2024-01-30T13:00:45;3.28;;;0.90;;
19879;SDS011;10102;50.828;4.416;2024-01-30T13:03:12;2.40;;;0.95;;
19879;SDS011;10102;50.828;4.416;2024-01-30T13:05:38;5.05;;;1.10;;
19879;SDS011;10102;50.828;4.416;2024-01-30T13:08:03;2.97;;;0.93;;
19879;SDS011;10102;50.828;4.416;2024-01-30T13:10:30;3.92;;;1.30;;
19879;SDS011;10102;50.828;4.416;2024-01-30T13:12:55;3.25;;;1.20;;
19879;SDS011;10102;50.828;4.416;2024-01-30T13:15:21;2.65;;;1.10;;
19879;SDS011;10102;50.828;4.416;2024-01-30T13:17:48;3.72;;;1.10;;
19879;SDS011;10102;50.828;4.416;2024-01-30T13:20:14;4.07;;;1.15;;
19879;SDS011;10102;50.828;4.416;2024-01-30T13:22:44;1.98;;;1.10;;
19879;SDS011;10102;50.828;4.416;2024-01-30T13:25:11;1.85;;;1.00;;
19879;SDS011;10102;50.828;4.416;2024-01-30T13:27:37;4.18;;;1.35;;
19879;SDS011;10102;50.828;4.416;2024-01-30T13:30:03;3.97;;;1.05;;
19879;SDS011;10102;50.828;4.416;2024-01-30T13:32:29;2.20;;;1.23;;
19879;SDS011;10102;50.828;4.416;2024-01-30T13:34:55;3.83;;;1.23;;
19879;SDS011;10102;50.828;4.416;2024-01-30T13:37:21;6.65;;;1.17;;
19879;SDS011;10102;50.828;4.416;2024-01-30T13:39:47;7.97;;;1.70;;
19879;SDS011;10102;50.828;4.416;2024-01-30T13:42:13;7.18;;;1.30;;
19879;SDS011;10102;50.828;4.416;2024-01-30T13:44:39;5.28;;;1.45;;
19879;SDS011;10102;50.828;4.416;2024-01-30T13:47:05;12.90;;;1.73;;
19879;SDS011;10102;50.828;4.416;2024-01-30T13:49:30;8.57;;;1.42;;
19879;SDS011;10102;50.828;4.416;2024-01-30T13:51:56;4.88;;;1.20;;
19879;SDS011;10102;50.828;4.416;2024-01-30T13:54:23;3.28;;;1.00;;
19879;SDS011;10102;50.828;4.416;2024-01-30T13:56:49;4.88;;;1.60;;
19879;SDS011;10102;50.828;4.416;2024-01-30T13:59:14;3.90;;;1.23;;
19879;SDS011;10102;50.828;4.416;2024-01-30T14:01:40;4.13;;;1.60;;
19879;SDS011;10102;50.828;4.416;2024-01-30T14:04:06;5.78;;;1.33;;
19879;SDS011;10102;50.828;4.416;2024-01-30T14:06:32;5.57;;;1.48;;
19879;SDS011;10102;50.828;4.416;2024-01-30T14:08:57;5.85;;;1.60;;
19879;SDS011;10102;50.828;4.416;2024-01-30T14:11:23;7.93;;;1.73;;
19879;SDS011;10102;50.828;4.416;2024-01-30T14:13:49;4.20;;;1.30;;
19879;SDS011;10102;50.828;4.416;2024-01-30T14:16:15;7.10;;;1.40;;
19879;SDS011;10102;50.828;4.416;2024-01-30T14:18:41;4.70;;;1.40;;
19879;SDS011;10102;50.828;4.416;2024-01-30T14:21:07;3.35;;;0.95;;
19879;SDS011;10102;50.828;4.416;2024-01-30T14:23:33;4.75;;;1.27;;
19879;SDS011;10102;50.828;4.416;2024-01-30T14:25:59;1.75;;;0.90;;
19879;SDS011;10102;50.828;4.416;2024-01-30T14:28:25;5.20;;;1.30;;
19879;SDS011;10102;50.828;4.416;2024-01-30T14:30:50;4.82;;;1.10;;
19879;SDS011;10102;50.828;4.416;2024-01-30T14:33:16;3.17;;;1.23;;
19879;SDS011;10102;50.828;4.416;2024-01-30T14:35:42;7.90;;;1.20;;
19879;SDS011;10102;50.828;4.416;2024-01-30T14:38:08;3.95;;;1.20;;
19879;SDS011;10102;50.828;4.416;2024-01-30T14:40:34;5.10;;;1.10;;
19879;SDS011;10102;50.828;4.416;2024-01-30T14:43:00;1.42;;;1.08;;
19879;SDS011;10102;50.828;4.416;2024-01-30T14:45:26;2.28;;;1.02;;
19879;SDS011;10102;50.828;4.416;2024-01-30T14:47:52;3.88;;;1.30;;
19879;SDS011;10102;50.828;4.416;2024-01-30T14:50:18;4.45;;;1.20;;
19879;SDS011;10102;50.828;4.416;2024-01-30T14:52:44;7.80;;;1.30;;
19879;SDS011;10102;50.828;4.416;2024-01-30T14:55:09;4.53;;;1.08;;
19879;SDS011;10102;50.828;4.416;2024-01-30T14:57:35;1.75;;;1.40;;
19879;SDS011;10102;50.828;4.416;2024-01-30T15:00:03;3.58;;;1.48;;
19879;SDS011;10102;50.828;4.416;2024-01-30T15:02:29;6.47;;;1.10;;
19879;SDS011;10102;50.828;4.416;2024-01-30T15:04:55;3.97;;;1.60;;
19879;SDS011;10102;50.828;4.416;2024-01-30T15:07:21;3.92;;;1.27;;
19879;SDS011;10102;50.828;4.416;2024-01-30T15:09:46;3.33;;;1.83;;
19879;SDS011;10102;50.828;4.416;2024-01-30T15:12:12;3.53;;;2.13;;
19879;SDS011;10102;50.828;4.416;2024-01-30T15:14:38;3.90;;;1.90;;
19879;SDS011;10102;50.828;4.416;2024-01-30T15:17:03;2.75;;;1.42;;
19879;SDS011;10102;50.828;4.416;2024-01-30T15:19:29;4.15;;;1.60;;
19879;SDS011;10102;50.828;4.416;2024-01-30T15:21:55;3.70;;;1.75;;
19879;SDS011;10102;50.828;4.416;2024-01-30T15:24:20;17.15;;;1.98;;
19879;SDS011;10102;50.828;4.416;2024-01-30T15:26:49;7.45;;;1.90;;
19879;SDS011;10102;50.828;4.416;2024-01-30T15:29:16;3.08;;;1.40;;
19879;SDS011;10102;50.828;4.416;2024-01-30T15:31:42;7.15;;;1.60;;
19879;SDS011;10102;50.828;4.416;2024-01-30T15:34:07;15.63;;;2.10;;
19879;SDS011;10102;50.828;4.416;2024-01-30T15:36:33;5.35;;;2.08;;
19879;SDS011;10102;50.828;4.416;2024-01-30T15:38:59;2.35;;;1.23;;
19879;SDS011;10102;50.828;4.416;2024-01-30T15:41:25;6.40;;;1.33;;
19879;SDS011;10102;50.828;4.416;2024-01-30T15:43:50;4.05;;;1.38;;
19879;SDS011;10102;50.828;4.416;2024-01-30T15:46:16;4.75;;;1.52;;
19879;SDS011;10102;50.828;4.416;2024-01-30T15:48:42;6.13;;;1.50;;
19879;SDS011;10102;50.828;4.416;2024-01-30T15:51:08;4.28;;;1.67;;
19879;SDS011;10102;50.828;4.416;2024-01-30T15:53:35;10.40;;;1.58;;
19879;SDS011;10102;50.828;4.416;2024-01-30T15:56:01;6.43;;;1.35;;
19879;SDS011;10102;50.828;4.416;2024-01-30T15:58:27;5.20;;;1.73;;
19879;SDS011;10102;50.828;4.416;2024-01-30T16:00:53;2.78;;;1.30;;
19879;SDS011;10102;50.828;4.416;2024-01-30T16:03:18;4.13;;;1.35;;
19879;SDS011;10102;50.828;4.416;2024-01-30T16:05:44;3.50;;;1.33;;
19879;SDS011;10102;50.828;4.416;2024-01-30T16:08:09;4.55;;;1.58;;
19879;SDS011;10102;50.828;4.416;2024-01-30T16:10:35;6.57;;;1.55;;
19879;SDS011;10102;50.828;4.416;2024-01-30T16:13:01;3.80;;;1.25;;
19879;SDS011;10102;50.828;4.416;2024-01-30T16:15:27;4.82;;;1.58;;
19879;SDS011;10102;50.828;4.416;2024-01-30T16:17:53;4.30;;;1.85;;
19879;SDS011;10102;50.828;4.416;2024-01-30T16:20:19;6.47;;;1.55;;
19879;SDS011;10102;50.828;4.416;2024-01-30T16:22:44;6.53;;;1.60;;
19879;SDS011;10102;50.828;4.416;2024-01-30T16:25:10;2.85;;;1.83;;
19879;SDS011;10102;50.828;4.416;2024-01-30T16:27:37;7.15;;;1.90;;
19879;SDS011;10102;50.828;4.416;2024-01-30T16:30:03;4.78;;;1.90;;
19879;SDS011;10102;50.828;4.416;2024-01-30T16:32:29;4.20;;;1.85;;
19879;SDS011;10102;50.828;4.416;2024-01-30T16:34:57;9.20;;;2.42;;
19879;SDS011;10102;50.828;4.416;2024-01-30T16:37:23;5.32;;;1.75;;
19879;SDS011;10102;50.828;4.416;2024-01-30T16:39:50;5.38;;;2.25;;
19879;SDS011;10102;50.828;4.416;2024-01-30T16:42:16;8.70;;;2.20;;
19879;SDS011;10102;50.828;4.416;2024-01-30T16:44:42;3.58;;;2.15;;
19879;SDS011;10102;50.828;4.416;2024-01-30T16:47:09;4.60;;;2.33;;
19879;SDS011;10102;50.828;4.416;2024-01-30T16:49:35;6.72;;;2.25;;
19879;SDS011;10102;50.828;4.416;2024-01-30T16:52:00;5.97;;;2.65;;
19879;SDS011;10102;50.828;4.416;2024-01-30T16:54:26;7.07;;;2.67;;
19879;SDS011;10102;50.828;4.416;2024-01-30T16:56:52;5.82;;;2.60;;
19879;SDS011;10102;50.828;4.416;2024-01-30T16:59:18;5.05;;;2.83;;
19879;SDS011;10102;50.828;4.416;2024-01-30T17:01:44;7.38;;;2.72;;
19879;SDS011;10102;50.828;4.416;2024-01-30T17:04:14;6.57;;;2.67;;
19879;SDS011;10102;50.828;4.416;2024-01-30T17:06:42;6.63;;;2.80;;
19879;SDS011;10102;50.828;4.416;2024-01-30T17:09:08;8.13;;;2.58;;
19879;SDS011;10102;50.828;4.416;2024-01-30T17:11:34;6.72;;;2.88;;
19879;SDS011;10102;50.828;4.416;2024-01-30T17:14:00;6.53;;;3.30;;
19879;SDS011;10102;50.828;4.416;2024-01-30T17:16:26;7.90;;;3.28;;
19879;SDS011;10102;50.828;4.416;2024-01-30T17:18:51;7.18;;;3.17;;
19879;SDS011;10102;50.828;4.416;2024-01-30T17:21:17;9.55;;;4.43;;
19879;SDS011;10102;50.828;4.416;2024-01-30T17:23:44;4.95;;;3.03;;
19879;SDS011;10102;50.828;4.416;2024-01-30T17:26:10;6.88;;;3.15;;
19879;SDS011;10102;50.828;4.416;2024-01-30T17:28:36;9.48;;;3.40;;
19879;SDS011;10102;50.828;4.416;2024-01-30T17:31:02;6.63;;;3.05;;
19879;SDS011;10102;50.828;4.416;2024-01-30T17:33:30;6.88;;;3.63;;
19879;SDS011;10102;50.828;4.416;2024-01-30T17:35:56;12.27;;;3.85;;
19879;SDS011;10102;50.828;4.416;2024-01-30T17:38:22;9.35;;;4.00;;
19879;SDS011;10102;50.828;4.416;2024-01-30T17:40:47;8.43;;;3.17;;
19879;SDS011;10102;50.828;4.416;2024-01-30T17:43:15;11.48;;;4.15;;
19879;SDS011;10102;50.828;4.416;2024-01-30T17:45:41;10.02;;;3.80;;
19879;SDS011;10102;50.828;4.416;2024-01-30T17:48:07;14.07;;;4.05;;
19879;SDS011;10102;50.828;4.416;2024-01-30T17:50:32;8.85;;;3.88;;
19879;SDS011;10102;50.828;4.416;2024-01-30T17:52:58;9.20;;;4.03;;
19879;SDS011;10102;50.828;4.416;2024-01-30T17:55:24;12.18;;;4.03;;
19879;SDS011;10102;50.828;4.416;2024-01-30T17:57:49;9.70;;;3.97;;
19879;SDS011;10102;50.828;4.416;2024-01-30T18:00:15;8.00;;;3.78;;
19879;SDS011;10102;50.828;4.416;2024-01-30T18:02:41;6.38;;;3.30;;
19879;SDS011;10102;50.828;4.416;2024-01-30T18:05:07;5.93;;;3.38;;
19879;SDS011;10102;50.828;4.416;2024-01-30T18:07:34;7.10;;;3.50;;
19879;SDS011;10102;50.828;4.416;2024-01-30T18:10:03;6.50;;;3.58;;
19879;SDS011;10102;50.828;4.416;2024-01-30T18:12:33;9.68;;;4.13;;
19879;SDS011;10102;50.828;4.416;2024-01-30T18:15:00;5.88;;;3.20;;
19879;SDS011;10102;50.828;4.416;2024-01-30T18:17:26;7.20;;;2.95;;
19879;SDS011;10102;50.828;4.416;2024-01-30T18:19:52;11.07;;;3.70;;
19879;SDS011;10102;50.828;4.416;2024-01-30T18:22:17;6.03;;;3.20;;
19879;SDS011;10102;50.828;4.416;2024-01-30T18:24:43;7.68;;;3.55;;
19879;SDS011;10102;50.828;4.416;2024-01-30T18:27:09;10.45;;;3.95;;
19879;SDS011;10102;50.828;4.416;2024-01-30T18:29:35;8.02;;;3.88;;
19879;SDS011;10102;50.828;4.416;2024-01-30T18:32:01;8.07;;;4.05;;
19879;SDS011;10102;50.828;4.416;2024-01-30T18:34:27;7.70;;;4.07;;
19879;SDS011;10102;50.828;4.416;2024-01-30T18:36:53;7.38;;;3.80;;
19879;SDS011;10102;50.828;4.416;2024-01-30T18:39:19;8.25;;;3.97;;
19879;SDS011;10102;50.828;4.416;2024-01-30T18:41:45;6.68;;;3.45;;
19879;SDS011;10102;50.828;4.416;2024-01-30T18:44:11;9.05;;;3.80;;
19879;SDS011;10102;50.828;4.416;2024-01-30T18:46:36;11.02;;;3.75;;
19879;SDS011;10102;50.828;4.416;2024-01-30T18:49:02;8.80;;;3.70;;
19879;SDS011;10102;50.828;4.416;2024-01-30T18:51:28;8.27;;;4.03;;
19879;SDS011;10102;50.828;4.416;2024-01-30T18:53:55;5.55;;;3.20;;
19879;SDS011;10102;50.828;4.416;2024-01-30T18:56:21;6.10;;;3.28;;
19879;SDS011;10102;50.828;4.416;2024-01-30T18:58:46;8.05;;;4.40;;
19879;SDS011;10102;50.828;4.416;2024-01-30T19:01:12;11.55;;;4.30;;
19879;SDS011;10102;50.828;4.416;2024-01-30T19:03:38;7.65;;;4.50;;
19879;SDS011;10102;50.828;4.416;2024-01-30T19:06:04;8.95;;;4.20;;
19879;SDS011;10102;50.828;4.416;2024-01-30T19:08:30;6.03;;;3.72;;
19879;SDS011;10102;50.828;4.416;2024-01-30T19:10:56;9.85;;;4.03;;
19879;SDS011;10102;50.828;4.416;2024-01-30T19:13:22;8.45;;;3.38;;
19879;SDS011;10102;50.828;4.416;2024-01-30T19:15:47;7.60;;;4.22;;
19879;SDS011;10102;50.828;4.416;2024-01-30T19:18:13;10.98;;;3.78;;
19879;SDS011;10102;50.828;4.416;2024-01-30T19:20:39;10.82;;;4.60;;
19879;SDS011;10102;50.828;4.416;2024-01-30T19:23:06;5.90;;;3.72;;
19879;SDS011;10102;50.828;4.416;2024-01-30T19:25:31;7.25;;;3.75;;
19879;SDS011;10102;50.828;4.416;2024-01-30T19:27:57;12.27;;;3.83;;
19879;SDS011;10102;50.828;4.416;2024-01-30T19:30:26;8.80;;;3.40;;
19879;SDS011;10102;50.828;4.416;2024-01-30T19:32:52;8.90;;;3.95;;
19879;SDS011;10102;50.828;4.416;2024-01-30T19:35:18;6.57;;;3.70;;
19879;SDS011;10102;50.828;4.416;2024-01-30T19:37:44;7.53;;;3.92;;
19879;SDS011;10102;50.828;4.416;2024-01-30T19:40:10;8.45;;;3.92;;
19879;SDS011;10102;50.828;4.416;2024-01-30T19:42:36;6.85;;;4.28;;
19879;SDS011;10102;50.828;4.416;2024-01-30T19:45:02;7.45;;;3.45;;
19879;SDS011;10102;50.828;4.416;2024-01-30T19:47:29;11.02;;;5.00;;
19879;SDS011;10102;50.828;4.416;2024-01-30T19:49:55;15.60;;;4.20;;
19879;SDS011;10102;50.828;4.416;2024-01-30T19:52:21;11.93;;;4.65;;
19879;SDS011;10102;50.828;4.416;2024-01-30T19:54:47;5.50;;;3.92;;
19879;SDS011;10102;50.828;4.416;2024-01-30T19:57:13;6.25;;;3.97;;
19879;SDS011;10102;50.828;4.416;2024-01-30T19:59:38;12.02;;;4.32;;
19879;SDS011;10102;50.828;4.416;2024-01-30T20:02:04;10.35;;;4.65;;
19879;SDS011;10102;50.828;4.416;2024-01-30T20:04:30;7.82;;;4.57;;
19879;SDS011;10102;50.828;4.416;2024-01-30T20:06:55;7.35;;;4.15;;
19879;SDS011;10102;50.828;4.416;2024-01-30T20:09:21;4.95;;;3.53;;
19879;SDS011;10102;50.828;4.416;2024-01-30T20:11:50;8.98;;;4.28;;
19879;SDS011;10102;50.828;4.416;2024-01-30T20:14:15;11.43;;;4.53;;
19879;SDS011;10102;50.828;4.416;2024-01-30T20:16:41;7.90;;;4.32;;
19879;SDS011;10102;50.828;4.416;2024-01-30T20:19:08;7.00;;;3.58;;
19879;SDS011;10102;50.828;4.416;2024-01-30T20:21:34;12.15;;;4.50;;
19879;SDS011;10102;50.828;4.416;2024-01-30T20:24:02;7.28;;;4.40;;
19879;SDS011;10102;50.828;4.416;2024-01-30T20:26:28;5.97;;;4.47;;
19879;SDS011;10102;50.828;4.416;2024-01-30T20:28:54;9.55;;;4.45;;
19879;SDS011;10102;50.828;4.416;2024-01-30T20:31:20;10.30;;;4.78;;
19879;SDS011;10102;50.828;4.416;2024-01-30T20:33:47;7.57;;;4.25;;
19879;SDS011;10102;50.828;4.416;2024-01-30T20:36:14;5.95;;;4.38;;
19879;SDS011;10102;50.828;4.416;2024-01-30T20:38:40;11.85;;;4.75;;
19879;SDS011;10102;50.828;4.416;2024-01-30T20:41:07;9.10;;;4.57;;
19879;SDS011;10102;50.828;4.416;2024-01-30T20:43:37;8.27;;;4.85;;
19879;SDS011;10102;50.828;4.416;2024-01-30T20:46:03;8.27;;;5.13;;
19879;SDS011;10102;50.828;4.416;2024-01-30T20:48:29;7.70;;;4.72;;
19879;SDS011;10102;50.828;4.416;2024-01-30T20:50:55;7.95;;;4.88;;
19879;SDS011;10102;50.828;4.416;2024-01-30T20:53:20;14.88;;;5.03;;
19879;SDS011;10102;50.828;4.416;2024-01-30T20:55:46;9.13;;;5.20;;
19879;SDS011;10102;50.828;4.416;2024-01-30T20:58:12;10.82;;;5.40;;
19879;SDS011;10102;50.828;4.416;2024-01-30T21:00:38;8.52;;;4.72;;
19879;SDS011;10102;50.828;4.416;2024-01-30T21:03:03;12.75;;;5.43;;
19879;SDS011;10102;50.828;4.416;2024-01-30T21:05:29;9.07;;;5.20;;
19879;SDS011;10102;50.828;4.416;2024-01-30T21:07:55;9.73;;;5.63;;
19879;SDS011;10102;50.828;4.416;2024-01-30T21:10:21;7.85;;;5.78;;